createdAt,value
2022-10-09T00:00:43.567Z,84.47
2022-10-09T00:03:00.507Z,83.92
2022-10-09T00:05:17.477Z,84.08
2022-10-09T00:07:34.462Z,84.72
2022-10-09T00:09:51.307Z,84.00
2022-10-09T00:12:08.251Z,84.27
2022-10-09T00:14:25.140Z,84.96
2022-10-09T00:16:42.088Z,84.71
2022-10-09T00:18:59.007Z,84.91
2022-10-09T00:21:15.919Z,84.67
2022-10-09T00:23:32.742Z,84.68
2022-10-09T00:25:49.620Z,84.66
2022-10-09T00:28:06.600Z,83.60
2022-10-09T00:30:23.525Z,84.58
2022-10-09T00:32:40.408Z,83.74
2022-10-09T00:34:57.246Z,84.60
2022-10-09T00:37:14.220Z,84.68
2022-10-09T00:39:31.063Z,84.62
2022-10-09T00:41:47.903Z,83.86
2022-10-09T00:44:07.982Z,84.49
2022-10-09T00:46:25.017Z,84.80
2022-10-09T00:48:41.882Z,84.48
2022-10-09T00:50:58.747Z,84.15
2022-10-09T00:53:15.591Z,84.57
2022-10-09T00:55:32.479Z,84.62
2022-10-09T00:57:49.313Z,83.66
2022-10-09T01:00:06.210Z,83.48
2022-10-09T01:02:23.077Z,83.90
2022-10-09T01:04:40.029Z,83.78
2022-10-09T01:06:56.855Z,84.31
2022-10-09T01:09:13.729Z,84.05
2022-10-09T01:11:30.596Z,84.56
2022-10-09T01:13:47.426Z,83.71
2022-10-09T01:16:04.377Z,85.13
2022-10-09T01:18:21.285Z,84.16
2022-10-09T01:20:38.156Z,84.36
2022-10-09T01:22:55.042Z,84.82
2022-10-09T01:25:11.936Z,84.01
2022-10-09T01:27:28.827Z,83.65
2022-10-09T01:29:45.784Z,84.06
2022-10-09T01:32:02.646Z,84.73
2022-10-09T01:34:19.496Z,83.63
2022-10-09T01:36:36.391Z,84.68
2022-10-09T01:38:53.220Z,85.21
2022-10-09T01:41:10.068Z,85.09
2022-10-09T01:43:26.939Z,84.79
2022-10-09T01:45:43.778Z,85.19
2022-10-09T01:48:00.615Z,84.11
2022-10-09T01:50:17.535Z,84.05
2022-10-09T01:52:37.074Z,83.74
2022-10-09T01:54:56.091Z,83.92
2022-10-09T01:57:12.903Z,84.12
2022-10-09T01:59:29.700Z,84.90
2022-10-09T02:01:46.663Z,84.07
2022-10-09T02:04:03.593Z,83.90
2022-10-09T02:06:20.428Z,85.08
2022-10-09T02:08:37.303Z,84.43
2022-10-09T02:10:54.217Z,84.75
2022-10-09T02:13:11.084Z,84.82
2022-10-09T02:15:27.940Z,84.95
2022-10-09T02:17:44.792Z,84.42
2022-10-09T02:20:01.668Z,84.18
2022-10-09T02:22:18.493Z,84.71
2022-10-09T02:24:35.393Z,84.42
2022-10-09T02:26:52.249Z,85.12
2022-10-09T02:29:09.107Z,84.87
2022-10-09T02:31:26.071Z,84.08
2022-10-09T02:33:42.942Z,84.52
2022-10-09T02:35:59.828Z,84.76
2022-10-09T02:38:16.672Z,84.54
2022-10-09T02:40:33.569Z,84.97
2022-10-09T02:42:50.468Z,84.20
2022-10-09T02:45:07.467Z,84.21
2022-10-09T02:47:24.321Z,84.65
2022-10-09T02:49:41.135Z,84.51
2022-10-09T02:51:58.002Z,83.80
2022-10-09T02:54:14.912Z,84.40
2022-10-09T02:56:34.567Z,83.60
2022-10-09T02:58:54.815Z,83.93
2022-10-09T03:01:11.693Z,84.60
2022-10-09T03:03:28.526Z,84.07
2022-10-09T03:05:45.388Z,84.11
2022-10-09T03:08:02.325Z,84.38
2022-10-09T03:10:19.159Z,84.59
2022-10-09T03:12:36.011Z,84.45
2022-10-09T03:14:52.829Z,84.18
2022-10-09T03:17:09.690Z,84.42
2022-10-09T03:19:26.523Z,84.47
2022-10-09T03:21:43.411Z,83.84
2022-10-09T03:24:00.218Z,83.91
2022-10-09T03:26:17.095Z,84.13
2022-10-09T03:28:34.041Z,84.14
2022-10-09T03:30:51.035Z,84.25
2022-10-09T03:33:07.837Z,84.49
2022-10-09T03:35:24.667Z,84.31
2022-10-09T03:37:41.532Z,83.79
2022-10-09T03:39:58.415Z,84.34
2022-10-09T03:42:15.231Z,83.84
2022-10-09T03:44:32.099Z,84.40
2022-10-09T03:46:49.033Z,83.94
2022-10-09T03:49:06.055Z,84.06
2022-10-09T03:51:22.916Z,84.22
2022-10-09T03:53:39.747Z,84.45
2022-10-09T03:55:56.591Z,84.18
2022-10-09T03:58:13.485Z,84.10
2022-10-09T04:00:30.563Z,84.43
2022-10-09T04:02:47.881Z,85.06
2022-10-09T04:05:04.940Z,84.52
2022-10-09T04:07:21.776Z,85.00
2022-10-09T04:09:38.661Z,84.18
2022-10-09T04:11:55.532Z,84.08
2022-10-09T04:14:12.384Z,83.98
2022-10-09T04:16:29.299Z,84.75
2022-10-09T04:18:46.177Z,84.01
2022-10-09T04:21:03.003Z,83.93
2022-10-09T04:23:19.903Z,84.21
2022-10-09T04:25:36.803Z,84.52
2022-10-09T04:27:53.623Z,84.58
2022-10-09T04:30:10.539Z,84.70
2022-10-09T04:32:27.408Z,83.90
2022-10-09T04:34:44.277Z,84.37
2022-10-09T04:37:01.118Z,84.64
2022-10-09T04:39:17.993Z,84.50
2022-10-09T04:41:38.309Z,83.90
2022-10-09T04:43:55.463Z,84.49
2022-10-09T04:46:12.380Z,84.24
2022-10-09T04:48:29.298Z,84.23
2022-10-09T04:50:46.199Z,84.49
2022-10-09T04:53:03.101Z,84.73
2022-10-09T04:55:19.918Z,84.52
2022-10-09T04:57:36.783Z,84.53
2022-10-09T04:59:53.611Z,84.71
2022-10-09T05:02:13.313Z,85.26
2022-10-09T05:04:30.174Z,84.37
2022-10-09T05:06:47.056Z,84.64
2022-10-09T05:09:03.972Z,84.89
2022-10-09T05:11:20.879Z,84.68
2022-10-09T05:13:37.722Z,84.53
2022-10-09T05:15:54.582Z,84.49
2022-10-09T05:18:11.429Z,84.30
2022-10-09T05:20:28.252Z,84.63
2022-10-09T05:22:45.116Z,84.77
2022-10-09T05:25:02.022Z,84.77
2022-10-09T05:27:18.894Z,84.97
2022-10-09T05:29:35.768Z,84.87
2022-10-09T05:31:52.629Z,84.71
2022-10-09T05:34:09.518Z,85.30
2022-10-09T05:36:26.498Z,84.67
2022-10-09T05:38:43.303Z,84.79
2022-10-09T05:41:00.161Z,84.87
2022-10-09T05:43:17.002Z,85.08
2022-10-09T05:45:33.899Z,84.75
2022-10-09T05:47:50.834Z,85.04
2022-10-09T05:50:07.699Z,84.83
2022-10-09T05:52:24.541Z,84.88
2022-10-09T05:54:41.412Z,85.32
2022-10-09T05:56:58.283Z,85.32
2022-10-09T05:59:15.136Z,84.88
2022-10-09T06:01:32.051Z,84.99
2022-10-09T06:03:48.963Z,85.08
2022-10-09T06:06:05.812Z,85.34
2022-10-09T06:08:22.821Z,85.49
2022-10-09T06:10:42.461Z,85.31
2022-10-09T06:12:59.330Z,85.29
2022-10-09T06:15:16.183Z,85.07
2022-10-09T06:17:33.087Z,85.08
2022-10-09T06:19:49.919Z,85.59
2022-10-09T06:22:06.838Z,85.83
2022-10-09T06:24:28.174Z,85.56
2022-10-09T06:26:46.107Z,85.39
2022-10-09T06:29:03.013Z,85.14
2022-10-09T06:31:19.917Z,85.11
2022-10-09T06:33:36.769Z,85.04
2022-10-09T06:35:58.465Z,84.93
2022-10-09T06:38:20.807Z,85.18
2022-10-09T06:40:37.684Z,85.33
2022-10-09T06:42:54.603Z,85.23
2022-10-09T06:45:11.481Z,85.51
2022-10-09T06:47:28.407Z,85.38
2022-10-09T06:49:45.238Z,85.56
2022-10-09T06:52:02.048Z,84.98
2022-10-09T06:54:18.900Z,85.39
2022-10-09T06:56:35.757Z,84.84
2022-10-09T06:58:52.623Z,85.52
2022-10-09T07:01:09.522Z,85.12
2022-10-09T07:03:26.479Z,85.17
2022-10-09T07:05:43.392Z,84.62
2022-10-09T07:08:00.264Z,85.16
2022-10-09T07:10:19.556Z,85.19
2022-10-09T07:12:38.592Z,85.13
2022-10-09T07:14:55.547Z,85.08
2022-10-09T07:17:12.503Z,85.40
2022-10-09T07:19:29.376Z,85.32
2022-10-09T07:21:46.255Z,85.09
2022-10-09T07:24:03.165Z,85.47
2022-10-09T07:26:20.066Z,85.51
2022-10-09T07:28:36.946Z,85.79
2022-10-09T07:30:53.981Z,85.17
2022-10-09T07:33:10.919Z,84.74
2022-10-09T07:35:27.890Z,84.87
2022-10-09T07:37:44.744Z,85.01
2022-10-09T07:40:01.641Z,84.60
2022-10-09T07:42:18.585Z,84.55
2022-10-09T07:44:35.559Z,85.07
2022-10-09T07:46:52.496Z,85.33
2022-10-09T07:49:09.392Z,84.73
2022-10-09T07:51:26.390Z,83.81
2022-10-09T07:53:43.289Z,84.34
2022-10-09T07:56:00.203Z,84.11
2022-10-09T07:58:17.081Z,83.02
2022-10-09T08:00:33.969Z,82.81
2022-10-09T08:02:51.170Z,83.39
2022-10-09T08:05:08.254Z,83.05
2022-10-09T08:07:25.080Z,82.25
2022-10-09T08:09:41.889Z,82.73
2022-10-09T08:11:58.786Z,83.16
2022-10-09T08:14:19.194Z,82.81
2022-10-09T08:16:36.479Z,82.10
2022-10-09T08:18:53.314Z,82.41
2022-10-09T08:21:10.167Z,82.27
2022-10-09T08:23:27.042Z,81.89
2022-10-09T08:25:43.954Z,81.10
2022-10-09T08:28:00.808Z,80.72
2022-10-09T08:30:17.618Z,80.61
2022-10-09T08:32:34.516Z,80.36
2022-10-09T08:34:51.442Z,78.71
2022-10-09T08:37:08.412Z,79.66
2022-10-09T08:39:25.307Z,78.65
2022-10-09T08:41:42.247Z,79.17
2022-10-09T08:43:59.125Z,79.76
2022-10-09T08:46:20.422Z,80.48
2022-10-09T08:48:37.759Z,77.99
2022-10-09T08:50:54.677Z,78.77
2022-10-09T08:53:11.685Z,78.58
2022-10-09T08:55:28.493Z,77.64
2022-10-09T08:57:45.398Z,79.20
2022-10-09T09:00:02.398Z,77.91
2022-10-09T09:02:19.352Z,76.93
2022-10-09T09:04:36.340Z,76.87
2022-10-09T09:06:53.234Z,76.68
2022-10-09T09:09:10.141Z,76.62
2022-10-09T09:11:27.040Z,78.48
2022-10-09T09:13:43.916Z,77.48
2022-10-09T09:16:00.941Z,75.84
2022-10-09T09:18:17.914Z,75.61
2022-10-09T09:20:34.790Z,74.52
2022-10-09T09:22:51.970Z,75.39
2022-10-09T09:25:09.115Z,73.61
2022-10-09T09:27:26.050Z,72.67
2022-10-09T09:29:42.865Z,69.91
2022-10-09T09:31:59.770Z,70.32
2022-10-09T09:34:16.715Z,71.01
2022-10-09T09:36:33.689Z,69.33
2022-10-09T09:39:35.061Z,68.83
2022-10-09T09:41:27.576Z,68.38
2022-10-09T09:43:44.596Z,68.66
2022-10-09T09:46:01.597Z,66.91
2022-10-09T09:48:18.477Z,65.74
2022-10-09T09:50:48.505Z,67.78
2022-10-09T09:53:09.938Z,65.09
2022-10-09T09:55:26.879Z,64.85
2022-10-09T09:57:43.810Z,66.31
2022-10-09T10:00:00.868Z,63.90
2022-10-09T10:02:17.914Z,64.02
2022-10-09T10:04:36.234Z,63.79
2022-10-09T10:06:55.640Z,63.06
2022-10-09T10:09:12.555Z,61.70
2022-10-09T10:11:29.421Z,62.12
2022-10-09T10:13:46.420Z,62.04
2022-10-09T10:16:03.358Z,60.45
2022-10-09T10:18:20.304Z,59.99
2022-10-09T10:20:37.172Z,60.98
2022-10-09T10:22:54.049Z,61.09
2022-10-09T10:25:12.686Z,59.42
2022-10-09T10:27:32.277Z,58.69
2022-10-09T10:29:49.479Z,59.54
2022-10-09T10:32:06.376Z,58.95
2022-10-09T10:34:23.175Z,57.28
2022-10-09T10:36:40.045Z,56.70
2022-10-09T10:38:57.016Z,58.30
2022-10-09T10:41:13.937Z,56.88
2022-10-09T10:43:30.816Z,57.42
2022-10-09T10:45:47.725Z,57.51
2022-10-09T10:48:04.619Z,57.45
2022-10-09T10:50:21.508Z,55.61
2022-10-09T10:52:38.348Z,56.51
2022-10-09T10:54:55.267Z,54.83
2022-10-09T10:57:12.088Z,56.34
2022-10-09T10:59:29.005Z,55.43
2022-10-09T11:01:48.994Z,55.53
2022-10-09T11:04:05.895Z,55.22
2022-10-09T11:06:22.748Z,54.73
2022-10-09T11:08:39.610Z,56.13
2022-10-09T11:10:56.530Z,54.30
2022-10-09T11:13:13.395Z,55.83
2022-10-09T11:15:30.367Z,55.57
2022-10-09T11:17:47.190Z,54.50
2022-10-09T11:20:04.135Z,55.18
2022-10-09T11:22:21.102Z,53.30
2022-10-09T11:24:37.988Z,55.00
2022-10-09T11:26:56.009Z,53.31
2022-10-09T11:29:15.381Z,53.92
2022-10-09T11:31:32.409Z,53.54
2022-10-09T11:33:49.469Z,54.78
2022-10-09T11:36:06.303Z,56.10
2022-10-09T11:38:23.205Z,55.11
2022-10-09T11:40:40.295Z,53.57
2022-10-09T11:42:57.315Z,54.10
2022-10-09T11:45:14.144Z,53.84
2022-10-09T11:47:30.981Z,54.92
2022-10-09T11:49:47.959Z,54.72
2022-10-09T11:52:04.811Z,55.94
2022-10-09T11:54:21.652Z,55.44
2022-10-09T11:56:38.487Z,54.58
2022-10-09T11:58:55.320Z,56.25
2022-10-09T12:01:12.330Z,55.66
2022-10-09T12:03:29.226Z,55.50
2022-10-09T12:05:46.072Z,54.33
2022-10-09T12:08:02.943Z,53.10
2022-10-09T12:10:19.798Z,53.33
2022-10-09T12:12:36.661Z,54.32
2022-10-09T12:14:53.511Z,53.46
2022-10-09T12:17:10.367Z,53.54
2022-10-09T12:19:27.214Z,54.12
2022-10-09T12:21:44.089Z,51.89
2022-10-09T12:24:00.893Z,52.64
2022-10-09T12:26:17.782Z,53.39
2022-10-09T12:28:34.680Z,51.88
2022-10-09T12:30:51.729Z,52.55
2022-10-09T12:33:08.658Z,49.99
2022-10-09T12:35:25.548Z,51.84
2022-10-09T12:37:42.368Z,52.42
2022-10-09T12:39:59.225Z,51.56
2022-10-09T12:42:16.127Z,49.32
2022-10-09T12:44:33.019Z,49.42
2022-10-09T12:46:49.878Z,49.80
2022-10-09T12:49:06.702Z,50.44
2022-10-09T12:51:23.675Z,50.66
2022-10-09T12:53:40.507Z,49.52
2022-10-09T12:55:57.350Z,48.95
2022-10-09T12:58:14.223Z,48.03
2022-10-09T13:00:31.099Z,47.28
2022-10-09T13:02:48.431Z,46.47
2022-10-09T13:05:05.512Z,46.43
2022-10-09T13:07:22.397Z,45.65
2022-10-09T13:09:39.230Z,46.69
2022-10-09T13:11:56.111Z,44.85
2022-10-09T13:14:12.985Z,45.30
2022-10-09T13:16:29.878Z,45.13
2022-10-09T13:18:46.771Z,44.88
2022-10-09T13:21:03.633Z,45.04
2022-10-09T13:23:20.524Z,45.87
2022-10-09T13:25:37.365Z,45.56
2022-10-09T13:27:55.552Z,44.83
2022-10-09T13:30:12.554Z,45.08
2022-10-09T13:32:29.365Z,45.51
2022-10-09T13:34:46.256Z,44.61
2022-10-09T13:37:03.147Z,44.73
2022-10-09T13:39:19.981Z,44.98
2022-10-09T13:41:36.879Z,45.89
2022-10-09T13:43:53.702Z,45.10
2022-10-09T13:46:10.621Z,44.80
2022-10-09T13:48:27.484Z,45.39
2022-10-09T13:50:44.392Z,45.56
2022-10-09T13:53:01.220Z,44.35
2022-10-09T13:55:18.102Z,46.32
2022-10-09T13:57:34.958Z,45.82
2022-10-09T13:59:52.154Z,46.14
2022-10-09T14:02:09.365Z,45.83
2022-10-09T14:04:26.223Z,46.60
2022-10-09T14:06:43.104Z,45.52
2022-10-09T14:08:59.952Z,47.85
2022-10-09T14:11:16.825Z,46.66
2022-10-09T14:13:33.708Z,47.95
2022-10-09T14:15:50.566Z,46.35
2022-10-09T14:18:07.476Z,45.57
2022-10-09T14:20:24.320Z,46.38
2022-10-09T14:22:41.184Z,46.13
2022-10-09T14:24:58.075Z,45.91
2022-10-09T14:27:14.893Z,44.75
2022-10-09T14:29:31.773Z,45.15
2022-10-09T14:31:48.688Z,45.40
2022-10-09T14:34:05.543Z,45.41
2022-10-09T14:36:22.372Z,46.43
2022-10-09T14:38:39.254Z,46.13
2022-10-09T14:40:56.106Z,45.16
2022-10-09T14:43:13.008Z,45.94
2022-10-09T14:45:30.071Z,45.62
2022-10-09T14:47:46.960Z,44.73
2022-10-09T14:50:03.805Z,46.69
2022-10-09T14:52:20.632Z,46.69
2022-10-09T14:54:37.570Z,45.70
2022-10-09T14:56:54.392Z,45.08
2022-10-09T14:59:11.236Z,45.11
2022-10-09T15:01:28.102Z,47.20
2022-10-09T15:03:44.964Z,45.33
2022-10-09T15:06:01.930Z,44.36
2022-10-09T15:08:18.767Z,44.60
2022-10-09T15:10:35.678Z,43.79
2022-10-09T15:12:52.547Z,44.08
2022-10-09T15:15:09.419Z,42.77
2022-10-09T15:17:26.305Z,41.81
2022-10-09T15:19:43.184Z,42.25
2022-10-09T15:22:00.104Z,40.54
2022-10-09T15:24:17.028Z,40.27
2022-10-09T15:26:33.892Z,40.24
2022-10-09T15:28:50.734Z,37.30
2022-10-09T15:31:07.765Z,38.27
2022-10-09T15:33:24.635Z,35.91
2022-10-09T15:35:41.604Z,36.07
2022-10-09T15:37:58.504Z,36.21
2022-10-09T15:40:15.383Z,37.13
2022-10-09T15:42:32.222Z,37.85
2022-10-09T15:44:49.096Z,39.94
2022-10-09T15:47:09.276Z,43.53
2022-10-09T15:49:26.821Z,46.36
2022-10-09T15:51:47.502Z,48.20
2022-10-09T15:54:08.709Z,51.23
2022-10-09T15:56:26.415Z,53.69
2022-10-09T15:58:46.699Z,56.22
2022-10-09T16:01:04.738Z,57.07
2022-10-09T16:03:22.703Z,58.25
2022-10-09T16:05:42.490Z,59.70
2022-10-09T16:07:59.389Z,60.18
2022-10-09T16:10:16.266Z,61.63
2022-10-09T16:12:33.159Z,61.34
2022-10-09T16:14:50.032Z,63.62
2022-10-09T16:17:11.131Z,64.58
2022-10-09T16:19:28.406Z,64.83
2022-10-09T16:21:45.308Z,63.84
2022-10-09T16:24:02.172Z,65.41
2022-10-09T16:26:19.010Z,66.72
2022-10-09T16:28:35.948Z,67.91
2022-10-09T16:30:52.897Z,68.12
2022-10-09T16:33:12.605Z,68.29
2022-10-09T16:35:29.824Z,69.79
2022-10-09T16:37:46.683Z,68.97
2022-10-09T16:40:03.570Z,70.65
2022-10-09T16:42:20.390Z,71.15
2022-10-09T16:44:37.224Z,70.33
2022-10-09T16:46:55.325Z,71.97
2022-10-09T16:49:12.491Z,72.19
2022-10-09T16:51:29.441Z,72.30
2022-10-09T16:53:46.364Z,72.90
2022-10-09T16:56:03.264Z,72.92
2022-10-09T16:58:20.111Z,73.45
2022-10-09T17:00:37.035Z,73.76
2022-10-09T17:02:53.986Z,74.71
2022-10-09T17:05:10.888Z,75.01
2022-10-09T17:07:27.735Z,74.52
2022-10-09T17:09:44.672Z,74.70
2022-10-09T17:12:01.517Z,74.51
2022-10-09T17:14:18.436Z,74.85
2022-10-09T17:16:35.282Z,73.83
2022-10-09T17:18:52.242Z,75.12
2022-10-09T17:21:09.064Z,76.33
2022-10-09T17:23:25.966Z,75.10
2022-10-09T17:25:42.891Z,76.42
2022-10-09T17:28:01.396Z,77.35
2022-10-09T17:30:20.192Z,76.45
2022-10-09T17:32:37.073Z,77.14
2022-10-09T17:34:53.984Z,76.49
2022-10-09T17:37:10.903Z,77.63
2022-10-09T17:39:27.785Z,77.91
2022-10-09T17:41:44.697Z,77.91
2022-10-09T17:44:01.628Z,77.37
2022-10-09T17:46:18.475Z,78.17
2022-10-09T17:48:35.398Z,77.56
2022-10-09T17:50:52.277Z,77.69
2022-10-09T17:53:09.160Z,78.51
2022-10-09T17:55:26.137Z,77.50
2022-10-09T17:57:43.041Z,79.25
2022-10-09T18:00:00.007Z,77.92
2022-10-09T18:02:16.933Z,78.80
2022-10-09T18:04:33.828Z,78.16
2022-10-09T18:06:50.732Z,79.92
2022-10-09T18:09:07.702Z,79.67
2022-10-09T18:11:24.590Z,79.10
2022-10-09T18:13:41.514Z,80.33
2022-10-09T18:15:58.520Z,79.13
2022-10-09T18:18:17.264Z,80.23
2022-10-09T18:20:34.171Z,79.14
2022-10-09T18:22:51.147Z,80.52
2022-10-09T18:25:08.088Z,79.81
2022-10-09T18:27:25.049Z,79.43
2022-10-09T18:29:41.952Z,81.09
2022-10-09T18:31:58.916Z,81.14
2022-10-09T18:34:15.759Z,80.67
2022-10-09T18:36:32.646Z,80.48
2022-10-09T18:38:49.529Z,79.51
2022-10-09T18:41:06.409Z,80.53
2022-10-09T18:43:23.329Z,80.70
2022-10-09T18:45:40.176Z,80.42
2022-10-09T18:47:59.659Z,81.68
2022-10-09T18:50:16.542Z,81.06
2022-10-09T18:52:33.793Z,80.27
2022-10-09T18:54:50.754Z,80.75
2022-10-09T18:57:07.607Z,80.70
2022-10-09T18:59:24.506Z,80.26
2022-10-09T19:01:44.387Z,80.65
2022-10-09T19:04:01.345Z,80.58
2022-10-09T19:06:18.237Z,80.71
2022-10-09T19:08:35.161Z,81.26
2022-10-09T19:10:52.476Z,80.85
2022-10-09T19:13:09.383Z,81.38
2022-10-09T19:15:26.316Z,81.10
2022-10-09T19:17:43.328Z,81.51
2022-10-09T19:20:00.233Z,82.01
2022-10-09T19:22:21.386Z,82.09
2022-10-09T19:24:40.632Z,81.93
2022-10-09T19:26:57.527Z,81.96
2022-10-09T19:29:14.463Z,81.83
2022-10-09T19:31:31.572Z,81.94
2022-10-09T19:33:48.518Z,81.86
2022-10-09T19:36:05.498Z,81.61
2022-10-09T19:38:22.383Z,82.17
2022-10-09T19:40:39.291Z,82.21
2022-10-09T19:42:56.255Z,82.07
2022-10-09T19:45:13.106Z,82.20
2022-10-09T19:47:30.063Z,81.73
2022-10-09T19:49:46.930Z,82.11
2022-10-09T19:52:03.866Z,81.93
2022-10-09T19:54:20.865Z,82.51
2022-10-09T19:56:37.866Z,82.75
2022-10-09T19:58:55.006Z,82.31
2022-10-09T20:01:11.998Z,82.95
2022-10-09T20:03:28.915Z,82.51
2022-10-09T20:05:45.782Z,82.60
2022-10-09T20:08:02.697Z,82.73
2022-10-09T20:10:19.569Z,82.79
2022-10-09T20:12:36.414Z,82.90
2022-10-09T20:14:53.231Z,82.75
2022-10-09T20:17:10.094Z,82.83
2022-10-09T20:19:26.971Z,82.68
2022-10-09T20:21:44.276Z,82.88
2022-10-09T20:24:01.117Z,82.99
2022-10-09T20:26:18.045Z,83.05
2022-10-09T20:28:35.010Z,82.79
2022-10-09T20:30:52.034Z,82.62
2022-10-09T20:33:08.908Z,82.77
2022-10-09T20:35:25.764Z,83.13
2022-10-09T20:37:42.647Z,83.11
2022-10-09T20:39:59.518Z,82.94
2022-10-09T20:42:16.551Z,83.24
2022-10-09T20:44:33.615Z,82.41
2022-10-09T20:46:50.513Z,83.25
2022-10-09T20:49:07.396Z,82.70
2022-10-09T20:51:24.284Z,82.24
2022-10-09T20:53:41.194Z,82.77
2022-10-09T20:55:58.044Z,82.98
2022-10-09T20:58:14.934Z,82.49
2022-10-09T21:00:31.840Z,82.95
2022-10-09T21:02:48.971Z,82.72
2022-10-09T21:05:06.058Z,82.95
2022-10-09T21:07:22.978Z,82.49
2022-10-09T21:09:39.825Z,82.65
2022-10-09T21:11:56.714Z,81.46
2022-10-09T21:14:13.584Z,82.18
2022-10-09T21:16:30.421Z,82.65
2022-10-09T21:18:47.284Z,82.91
2022-10-09T21:21:04.097Z,82.47
2022-10-09T21:23:21.010Z,83.55
2022-10-09T21:25:37.835Z,83.63
2022-10-09T21:27:54.716Z,83.45
2022-10-09T21:30:11.567Z,83.31
2022-10-09T21:32:28.369Z,83.25
2022-10-09T21:34:45.281Z,83.01
2022-10-09T21:37:20.431Z,83.32
2022-10-09T21:39:38.585Z,83.45
2022-10-09T21:41:55.448Z,83.19
2022-10-09T21:44:12.337Z,83.47
2022-10-09T21:46:29.210Z,83.68
2022-10-09T21:48:46.146Z,82.84
2022-10-09T21:51:02.997Z,82.78
2022-10-09T21:53:19.858Z,83.22
2022-10-09T21:55:36.734Z,84.02
2022-10-09T21:57:53.628Z,83.72
2022-10-09T22:00:10.495Z,83.66
2022-10-09T22:02:27.388Z,84.17
2022-10-09T22:04:44.254Z,83.55
2022-10-09T22:07:01.137Z,83.49
2022-10-09T22:09:18.037Z,83.48
2022-10-09T22:11:34.889Z,84.04
2022-10-09T22:13:51.733Z,83.20
2022-10-09T22:16:08.662Z,83.25
2022-10-09T22:18:25.516Z,84.10
2022-10-09T22:20:42.482Z,83.76
2022-10-09T22:22:59.376Z,84.39
2022-10-09T22:25:16.283Z,83.75
2022-10-09T22:27:33.169Z,84.10
2022-10-09T22:29:50.070Z,83.57
2022-10-09T22:32:06.983Z,83.81
2022-10-09T22:34:24.044Z,83.36
2022-10-09T22:36:40.933Z,83.94
2022-10-09T22:38:57.793Z,84.58
2022-10-09T22:41:14.673Z,84.06
2022-10-09T22:43:31.585Z,84.20
2022-10-09T22:45:48.438Z,83.90
2022-10-09T22:48:05.282Z,83.25
2022-10-09T22:50:22.315Z,84.22
2022-10-09T22:52:39.189Z,84.54
2022-10-09T22:54:56.040Z,84.93
2022-10-09T22:57:12.919Z,84.55
2022-10-09T22:59:29.798Z,84.11
2022-10-09T23:01:46.906Z,83.77
2022-10-09T23:04:03.826Z,83.79
2022-10-09T23:06:20.833Z,83.80
2022-10-09T23:08:40.231Z,84.08
2022-10-09T23:10:57.212Z,84.71
2022-10-09T23:13:14.165Z,84.54
2022-10-09T23:15:31.105Z,84.38
2022-10-09T23:17:48.090Z,84.80
2022-10-09T23:20:05.041Z,84.25
2022-10-09T23:22:21.883Z,83.83
2022-10-09T23:24:38.821Z,84.35
2022-10-09T23:26:55.692Z,84.24
2022-10-09T23:29:12.652Z,83.18
2022-10-09T23:31:29.713Z,84.43
2022-10-09T23:33:46.725Z,84.69
2022-10-09T23:36:03.716Z,84.34
2022-10-09T23:38:20.803Z,83.88
2022-10-09T23:40:37.887Z,83.96
2022-10-09T23:43:00.393Z,84.91
2022-10-09T23:45:17.309Z,84.03
2022-10-09T23:47:34.304Z,83.64
2022-10-09T23:49:51.315Z,83.98
2022-10-09T23:52:08.212Z,83.41
2022-10-09T23:54:25.113Z,83.16
2022-10-09T23:56:42.027Z,84.53
2022-10-09T23:58:59.006Z,84.60
